createdAt,value
2022-11-28T00:00:45.670Z,4.41
2022-11-28T00:06:40.308Z,4.28
2022-11-28T00:12:34.120Z,4.19
2022-11-28T00:18:27.018Z,4.17
2022-11-28T00:24:19.723Z,4.07
2022-11-28T00:30:11.931Z,3.95
2022-11-28T00:36:05.737Z,3.80
2022-11-28T00:41:57.330Z,3.61
2022-11-28T00:47:50.022Z,3.40
2022-11-28T00:53:43.919Z,3.24
2022-11-28T00:59:36.668Z,3.07
2022-11-28T01:05:28.810Z,3.02
2022-11-28T01:11:21.348Z,2.93
2022-11-28T01:17:13.623Z,2.91
2022-11-28T01:23:05.941Z,2.82
2022-11-28T01:29:00.232Z,2.65
2022-11-28T01:34:53.029Z,2.55
2022-11-28T01:40:46.870Z,2.62
2022-11-28T01:46:38.891Z,2.80
2022-11-28T01:52:31.159Z,2.97
2022-11-28T01:58:24.529Z,3.08
2022-11-28T02:04:16.900Z,3.06
2022-11-28T02:10:12.395Z,3.04
2022-11-28T02:16:26.463Z,3.00
2022-11-28T02:22:34.408Z,3.02
2022-11-28T02:28:49.038Z,3.05
2022-11-28T02:34:47.281Z,3.12
2022-11-28T02:40:57.579Z,3.24
2022-11-28T02:46:55.491Z,3.31
2022-11-28T02:52:55.911Z,3.47
2022-11-28T02:58:48.068Z,3.50
2022-11-28T03:04:52.119Z,3.46
2022-11-28T03:11:10.699Z,3.59
2022-11-28T03:17:21.979Z,3.52
2022-11-28T03:23:16.516Z,3.52
2022-11-28T03:29:37.267Z,3.68
2022-11-28T03:35:34.381Z,3.78
2022-11-28T03:41:39.129Z,3.72
2022-11-28T03:47:37.909Z,3.81
2022-11-28T03:53:42.839Z,3.84
2022-11-28T03:59:49.298Z,3.82
2022-11-28T04:06:06.119Z,3.66
2022-11-28T04:12:05.049Z,3.73
2022-11-28T04:18:11.094Z,3.74
2022-11-28T04:24:08.540Z,3.70
2022-11-28T04:30:03.621Z,3.75
2022-11-28T04:35:57.219Z,3.81
2022-11-28T04:41:54.339Z,3.94
2022-11-28T04:47:46.259Z,3.98
2022-11-28T04:54:05.019Z,4.04
2022-11-28T04:59:57.850Z,3.99
2022-11-28T05:05:51.961Z,4.03
2022-11-28T05:11:44.184Z,3.95
2022-11-28T05:17:41.698Z,3.95
2022-11-28T05:23:34.085Z,3.91
2022-11-28T05:29:26.190Z,3.87
2022-11-28T05:35:18.563Z,3.82
2022-11-28T05:41:22.421Z,3.80
2022-11-28T05:47:16.096Z,3.86
2022-11-28T05:53:09.306Z,3.90
2022-11-28T05:59:01.501Z,3.86
2022-11-28T06:04:53.687Z,3.84
2022-11-28T06:10:46.507Z,3.91
2022-11-28T06:16:38.590Z,3.80
2022-11-28T06:22:31.308Z,3.76
2022-11-28T06:28:23.539Z,3.75
2022-11-28T06:34:15.577Z,3.93
2022-11-28T06:40:08.230Z,3.86
2022-11-28T06:46:00.980Z,3.88
2022-11-28T06:51:53.909Z,4.01
2022-11-28T06:57:46.780Z,4.01
2022-11-28T07:03:45.024Z,4.05
2022-11-28T07:09:38.308Z,4.10
2022-11-28T07:15:31.290Z,4.19
2022-11-28T07:21:24.807Z,4.16
2022-11-28T07:27:18.221Z,4.17
2022-11-28T07:33:11.745Z,4.15
2022-11-28T07:39:06.063Z,4.24
2022-11-28T07:44:58.685Z,4.75
2022-11-28T07:50:50.667Z,5.11
2022-11-28T07:57:11.844Z,5.53
2022-11-28T08:02:54.700Z,5.67
2022-11-28T08:08:47.543Z,5.81
2022-11-28T08:14:39.647Z,5.90
2022-11-28T08:20:31.705Z,5.57
2022-11-28T08:26:29.092Z,5.37
2022-11-28T08:32:23.139Z,5.59
2022-11-28T08:38:16.081Z,5.50
2022-11-28T08:44:09.185Z,5.65
2022-11-28T08:50:02.303Z,5.88
2022-11-28T08:55:54.951Z,5.92
2022-11-28T09:01:46.989Z,6.01
2022-11-28T09:07:39.715Z,6.37
2022-11-28T09:13:32.223Z,6.75
2022-11-28T09:19:24.784Z,6.56
2022-11-28T09:25:17.268Z,6.42
2022-11-28T09:31:13.020Z,6.31
2022-11-28T09:37:05.250Z,6.47
2022-11-28T09:43:06.383Z,7.19
2022-11-28T09:49:03.546Z,7.36
2022-11-28T09:55:28.492Z,7.20
2022-11-28T10:01:43.330Z,7.20
2022-11-28T10:08:04.799Z,7.15
2022-11-28T10:14:29.229Z,6.85
2022-11-28T10:20:25.932Z,6.88
2022-11-28T10:26:17.913Z,6.67
2022-11-28T10:32:16.683Z,6.60
2022-11-28T10:38:14.215Z,6.72
2022-11-28T10:44:33.803Z,6.65
2022-11-28T10:50:44.301Z,6.53
2022-11-28T10:57:03.153Z,6.39
2022-11-28T11:02:57.125Z,6.36
2022-11-28T11:08:49.583Z,6.51
2022-11-28T11:14:43.884Z,6.69
2022-11-28T11:20:39.403Z,6.94
2022-11-28T11:26:42.481Z,7.21
2022-11-28T11:32:35.604Z,7.19
2022-11-28T11:38:37.922Z,7.26
2022-11-28T11:44:34.931Z,7.16
2022-11-28T11:50:33.371Z,7.13
2022-11-28T11:56:26.101Z,7.00
2022-11-28T12:02:33.102Z,6.91
2022-11-28T12:08:34.162Z,6.77
2022-11-28T12:14:33.128Z,6.60
2022-11-28T12:20:50.282Z,6.50
2022-11-28T12:26:47.909Z,6.31
2022-11-28T12:32:59.586Z,6.22
2022-11-28T12:39:05.066Z,6.21
2022-11-28T12:45:09.383Z,6.04
2022-11-28T12:51:23.197Z,5.89
2022-11-28T12:57:34.701Z,5.89
2022-11-28T13:04:01.745Z,5.79
2022-11-28T13:10:45.544Z,5.72
2022-11-28T13:16:55.943Z,5.54
2022-11-28T13:22:57.823Z,5.46
2022-11-28T13:28:57.785Z,5.34
2022-11-28T13:34:51.223Z,5.24
2022-11-28T13:40:49.634Z,5.18
2022-11-28T13:46:44.218Z,5.12
2022-11-28T13:52:43.226Z,5.02
2022-11-28T13:58:49.542Z,4.89
2022-11-28T14:04:44.637Z,4.75
2022-11-28T14:10:50.327Z,4.71
2022-11-28T14:17:12.183Z,4.59
2022-11-28T14:23:20.141Z,4.35
2022-11-28T14:29:35.367Z,4.19
2022-11-28T14:35:52.710Z,3.96
2022-11-28T14:42:06.994Z,3.96
2022-11-28T14:48:19.835Z,3.66
2022-11-28T14:54:26.100Z,3.78
2022-11-28T15:00:38.804Z,3.79
2022-11-28T15:06:38.311Z,3.86
2022-11-28T15:12:44.363Z,3.88
2022-11-28T15:18:41.217Z,4.06
2022-11-28T15:24:36.485Z,4.45
2022-11-28T15:30:28.778Z,4.69
2022-11-28T15:36:28.700Z,4.61
2022-11-28T15:42:24.611Z,4.73
2022-11-28T15:48:27.745Z,4.77
2022-11-28T15:54:34.771Z,4.83
2022-11-28T16:00:27.096Z,4.86
2022-11-28T16:06:22.774Z,4.94
2022-11-28T16:12:15.441Z,5.06
2022-11-28T16:18:18.203Z,5.09
2022-11-28T16:24:26.209Z,5.07
2022-11-28T16:30:27.323Z,5.12
2022-11-28T16:36:25.060Z,5.07
2022-11-28T16:42:20.562Z,5.02
2022-11-28T16:48:19.681Z,5.11
2022-11-28T16:54:23.026Z,5.22
2022-11-28T17:00:15.765Z,5.25
2022-11-28T17:06:40.921Z,5.16
2022-11-28T17:12:37.480Z,5.16
2022-11-28T17:18:30.262Z,5.15
2022-11-28T17:24:27.683Z,5.23
2022-11-28T17:30:21.623Z,5.13
2022-11-28T17:36:14.169Z,5.18
2022-11-28T17:42:06.741Z,5.14
2022-11-28T17:47:59.955Z,4.99
2022-11-28T17:53:53.404Z,4.99
2022-11-28T17:59:46.219Z,5.08
2022-11-28T18:05:43.583Z,5.02
2022-11-28T18:11:38.809Z,5.02
2022-11-28T18:17:31.522Z,4.97
2022-11-28T18:23:26.159Z,5.02
2022-11-28T18:29:18.160Z,4.84
2022-11-28T18:35:10.967Z,4.68
2022-11-28T18:41:15.701Z,4.61
2022-11-28T18:47:11.068Z,4.49
2022-11-28T18:53:04.532Z,4.50
2022-11-28T18:58:58.547Z,4.41
2022-11-28T19:04:51.877Z,4.23
2022-11-28T19:10:44.982Z,4.12
2022-11-28T19:16:38.579Z,4.10
2022-11-28T19:22:32.186Z,4.08
2022-11-28T19:28:24.862Z,4.06
2022-11-28T19:34:19.256Z,4.05
2022-11-28T19:40:12.122Z,4.08
2022-11-28T19:46:05.718Z,4.09
2022-11-28T19:51:59.906Z,4.13
2022-11-28T19:57:53.084Z,4.09
2022-11-28T20:03:48.031Z,4.01
2022-11-28T20:09:40.734Z,4.05
2022-11-28T20:15:37.529Z,4.09
2022-11-28T20:21:30.403Z,3.94
2022-11-28T20:27:22.574Z,3.98
2022-11-28T20:33:14.826Z,3.90
2022-11-28T20:39:10.499Z,3.83
2022-11-28T20:45:03.785Z,3.93
2022-11-28T20:50:56.685Z,3.96
2022-11-28T21:03:01.846Z,4.06
2022-11-28T21:08:53.724Z,4.01
2022-11-28T21:14:46.221Z,4.09
2022-11-28T21:20:45.605Z,3.95
2022-11-28T21:26:42.451Z,3.95
2022-11-28T21:32:36.523Z,4.00
2022-11-28T21:38:29.882Z,3.99
2022-11-28T21:44:21.808Z,4.02
2022-11-28T21:50:15.068Z,3.97
2022-11-28T21:56:10.242Z,4.01
2022-11-28T22:02:07.180Z,3.91
2022-11-28T22:08:03.302Z,3.86
2022-11-28T22:13:56.148Z,3.78
2022-11-28T22:19:48.826Z,3.77
2022-11-28T22:25:49.648Z,3.66
2022-11-28T22:31:42.269Z,3.59
2022-11-28T22:37:34.687Z,3.70
2022-11-28T22:43:27.128Z,3.64
2022-11-28T22:49:20.141Z,3.68
2022-11-28T22:55:13.410Z,3.70
2022-11-28T23:01:11.448Z,3.69
2022-11-28T23:07:03.948Z,3.69
2022-11-28T23:12:56.950Z,3.70
2022-11-28T23:18:51.903Z,3.76
2022-11-28T23:24:45.187Z,3.83
2022-11-28T23:30:37.900Z,3.74
2022-11-28T23:36:36.987Z,3.69
2022-11-28T23:42:33.344Z,3.70
2022-11-28T23:48:26.784Z,3.75
2022-11-28T23:54:19.101Z,3.68
